createdAt,value
2018-08-16T00:00:55.298Z,4.43
2018-08-16T00:03:07.670Z,4.67
2018-08-16T00:05:19.961Z,5.00
2018-08-16T00:07:32.133Z,3.73
2018-08-16T00:09:44.401Z,4.47
2018-08-16T00:11:56.637Z,4.30
2018-08-16T00:14:08.836Z,4.67
2018-08-16T00:16:21.074Z,4.90
2018-08-16T00:18:33.285Z,4.83
2018-08-16T00:20:45.514Z,5.17
2018-08-16T00:22:57.714Z,5.23
2018-08-16T00:25:10.522Z,4.80
2018-08-16T00:27:22.740Z,5.63
2018-08-16T00:29:34.911Z,4.67
2018-08-16T00:31:47.194Z,5.90
2018-08-16T00:33:59.360Z,4.43
2018-08-16T00:36:11.561Z,4.70
2018-08-16T00:38:23.734Z,5.10
2018-08-16T00:40:35.928Z,4.83
2018-08-16T00:42:48.130Z,5.20
2018-08-16T00:45:00.367Z,4.40
2018-08-16T00:47:12.562Z,4.80
2018-08-16T00:49:24.741Z,4.70
2018-08-16T00:51:37.043Z,4.90
2018-08-16T00:53:49.224Z,5.00
2018-08-16T00:56:01.375Z,5.70
2018-08-16T00:58:13.598Z,6.00
2018-08-16T01:00:25.798Z,5.40
2018-08-16T01:02:38.014Z,4.93
2018-08-16T01:04:50.458Z,5.43
2018-08-16T01:07:02.776Z,5.73
2018-08-16T01:09:14.982Z,5.57
2018-08-16T01:11:27.151Z,5.23
2018-08-16T01:13:39.362Z,5.87
2018-08-16T01:15:51.534Z,5.33
2018-08-16T01:18:03.778Z,5.17
2018-08-16T01:20:16.109Z,5.07
2018-08-16T01:22:28.263Z,5.07
2018-08-16T01:24:40.437Z,9.37
2018-08-16T01:26:52.611Z,4.60
2018-08-16T01:29:04.910Z,5.67
2018-08-16T01:31:17.155Z,5.40
2018-08-16T01:33:29.523Z,5.00
2018-08-16T01:35:41.815Z,5.10
2018-08-16T01:37:53.925Z,5.43
2018-08-16T01:40:07.006Z,5.13
2018-08-16T01:42:19.260Z,5.90
2018-08-16T01:44:31.443Z,5.17
2018-08-16T01:49:00.274Z,5.87
2018-08-16T01:51:12.470Z,5.17
2018-08-16T01:53:24.677Z,5.50
2018-08-16T01:55:36.895Z,5.27
2018-08-16T01:57:49.068Z,5.03
2018-08-16T02:00:01.330Z,6.10
2018-08-16T02:02:13.535Z,5.20
2018-08-16T02:04:25.852Z,5.60
2018-08-16T02:06:38.268Z,6.23
2018-08-16T02:08:50.506Z,5.97
2018-08-16T02:11:02.729Z,5.40
2018-08-16T02:13:14.951Z,5.73
2018-08-16T02:15:27.160Z,5.50
2018-08-16T02:17:39.476Z,5.20
2018-08-16T02:19:51.695Z,4.33
2018-08-16T02:22:03.939Z,5.30
2018-08-16T02:24:16.215Z,5.77
2018-08-16T02:26:28.390Z,5.20
2018-08-16T02:28:40.598Z,5.23
2018-08-16T02:30:52.895Z,5.13
2018-08-16T02:33:05.147Z,5.83
2018-08-16T02:35:17.350Z,5.60
2018-08-16T02:37:29.604Z,5.57
2018-08-16T02:39:41.811Z,5.40
2018-08-16T02:41:54.026Z,5.90
2018-08-16T02:44:06.863Z,5.33
2018-08-16T02:46:19.091Z,6.17
2018-08-16T02:48:31.590Z,7.40
2018-08-16T02:50:43.831Z,6.03
2018-08-16T02:52:56.082Z,5.30
2018-08-16T02:55:08.293Z,5.47
2018-08-16T02:57:20.561Z,5.60
2018-08-16T02:59:32.794Z,5.33
2018-08-16T03:01:45.142Z,5.73
2018-08-16T03:03:57.354Z,5.43
2018-08-16T03:06:09.606Z,5.87
2018-08-16T03:08:21.855Z,5.70
2018-08-16T03:10:34.048Z,5.77
2018-08-16T03:12:46.359Z,5.27
2018-08-16T03:14:58.567Z,5.03
2018-08-16T03:17:10.818Z,5.40
2018-08-16T03:19:23.018Z,5.90
2018-08-16T03:21:35.271Z,5.30
2018-08-16T03:23:47.504Z,6.10
2018-08-16T03:25:59.719Z,5.53
2018-08-16T03:28:11.918Z,5.40
2018-08-16T03:30:24.122Z,5.57
2018-08-16T03:32:36.387Z,7.20
2018-08-16T03:34:48.588Z,6.10
2018-08-16T03:37:00.943Z,6.77
2018-08-16T03:39:13.151Z,6.10
2018-08-16T03:41:25.345Z,6.33
2018-08-16T03:43:37.554Z,6.10
2018-08-16T03:45:49.802Z,5.70
2018-08-16T03:48:02.096Z,5.60
2018-08-16T03:50:14.293Z,6.07
2018-08-16T03:52:26.478Z,6.43
2018-08-16T03:54:38.758Z,5.63
2018-08-16T03:56:50.978Z,5.80
2018-08-16T03:59:03.206Z,6.00
2018-08-16T04:01:15.552Z,6.40
2018-08-16T04:03:27.796Z,5.93
2018-08-16T04:05:40.112Z,6.23
2018-08-16T04:07:52.363Z,7.00
2018-08-16T04:10:04.815Z,5.90
2018-08-16T04:12:17.007Z,8.73
2018-08-16T04:14:29.226Z,6.00
2018-08-16T04:16:41.424Z,5.50
2018-08-16T04:18:53.622Z,6.40
2018-08-16T04:21:05.879Z,5.07
2018-08-16T04:23:18.102Z,6.43
2018-08-16T04:25:30.378Z,6.10
2018-08-16T04:27:42.608Z,6.53
2018-08-16T04:29:54.855Z,6.20
2018-08-16T04:32:07.094Z,5.10
2018-08-16T04:34:19.293Z,5.60
2018-08-16T04:36:31.514Z,5.70
2018-08-16T04:38:43.697Z,5.20
2018-08-16T04:40:57.347Z,7.03
2018-08-16T04:43:09.557Z,6.40
2018-08-16T04:45:21.826Z,6.83
2018-08-16T04:47:35.244Z,6.23
2018-08-16T04:49:47.459Z,7.10
2018-08-16T04:51:59.711Z,8.50
2018-08-16T04:54:11.898Z,6.23
2018-08-16T04:56:24.182Z,6.00
2018-08-16T04:58:37.078Z,6.03
2018-08-16T05:00:49.286Z,6.53
2018-08-16T05:03:01.531Z,7.07
2018-08-16T05:05:13.735Z,6.73
2018-08-16T05:07:26.042Z,6.27
2018-08-16T05:09:38.260Z,6.50
2018-08-16T05:11:51.986Z,6.60
2018-08-16T05:14:04.295Z,6.57
2018-08-16T05:16:17.101Z,5.90
2018-08-16T05:18:29.370Z,6.33
2018-08-16T05:20:41.574Z,5.47
2018-08-16T05:22:54.887Z,6.30
2018-08-16T05:25:07.173Z,6.67
2018-08-16T05:27:19.350Z,6.40
2018-08-16T05:29:31.555Z,6.00
2018-08-16T05:31:45.120Z,6.10
2018-08-16T05:33:57.924Z,5.40
2018-08-16T05:36:10.744Z,5.10
2018-08-16T05:38:22.966Z,5.37
2018-08-16T05:40:35.207Z,5.60
2018-08-16T05:42:47.443Z,6.37
2018-08-16T05:44:59.697Z,5.67
2018-08-16T05:47:11.899Z,6.40
2018-08-16T05:49:24.186Z,6.93
2018-08-16T05:51:37.093Z,7.60
2018-08-16T05:53:51.447Z,6.30
2018-08-16T05:56:03.711Z,6.83
2018-08-16T05:58:15.988Z,6.97
2018-08-16T06:00:28.191Z,6.17
2018-08-16T06:02:40.514Z,6.87
2018-08-16T06:04:52.731Z,5.43
2018-08-16T06:07:04.921Z,6.00
2018-08-16T06:09:18.764Z,6.10
2018-08-16T06:11:31.531Z,5.83
2018-08-16T06:13:44.518Z,5.63
2018-08-16T06:15:56.778Z,6.73
2018-08-16T06:18:09.203Z,6.00
2018-08-16T06:20:21.453Z,6.03
2018-08-16T06:22:33.714Z,5.30
2018-08-16T06:24:45.946Z,6.57
2018-08-16T06:26:58.180Z,5.90
2018-08-16T06:29:10.366Z,6.10
2018-08-16T06:31:22.622Z,5.23
2018-08-16T06:33:34.854Z,6.83
2018-08-16T06:35:47.122Z,8.70
2018-08-16T06:37:59.366Z,5.20
2018-08-16T06:40:14.411Z,5.90
2018-08-16T06:42:26.620Z,4.40
2018-08-16T06:44:38.839Z,4.40
2018-08-16T06:46:51.083Z,5.50
2018-08-16T06:49:03.342Z,4.93
2018-08-16T06:51:15.562Z,4.00
2018-08-16T06:53:28.335Z,5.60
2018-08-16T06:55:41.280Z,4.97
2018-08-16T06:57:53.510Z,4.17
2018-08-16T07:00:06.661Z,4.90
2018-08-16T07:02:18.865Z,6.40
2018-08-16T07:04:31.794Z,7.93
2018-08-16T07:06:44.062Z,4.30
2018-08-16T07:08:56.290Z,5.10
2018-08-16T07:11:08.598Z,3.90
2018-08-16T07:13:20.851Z,4.03
2018-08-16T07:15:33.099Z,5.70
2018-08-16T07:17:45.338Z,5.23
2018-08-16T07:19:57.544Z,3.93
2018-08-16T07:22:09.789Z,3.87
2018-08-16T07:24:21.980Z,4.30
2018-08-16T07:26:34.206Z,3.67
2018-08-16T07:28:46.431Z,5.23
2018-08-16T07:30:58.743Z,3.80
2018-08-16T07:33:11.001Z,4.33
2018-08-16T07:35:23.220Z,4.07
2018-08-16T07:37:35.484Z,3.83
2018-08-16T07:39:47.781Z,3.67
2018-08-16T07:42:00.032Z,4.00
2018-08-16T07:44:12.289Z,5.80
2018-08-16T07:46:24.545Z,3.00
2018-08-16T07:48:36.761Z,3.80
2018-08-16T07:50:49.001Z,4.60
2018-08-16T07:53:01.247Z,3.90
2018-08-16T07:55:13.469Z,3.13
2018-08-16T07:57:25.662Z,3.20
2018-08-16T07:59:37.907Z,3.57
2018-08-16T08:01:50.112Z,3.53
2018-08-16T08:04:02.680Z,3.90
2018-08-16T08:06:14.942Z,3.53
2018-08-16T08:08:27.256Z,2.90
2018-08-16T08:10:39.531Z,3.93
2018-08-16T08:12:51.786Z,4.40
2018-08-16T08:15:05.987Z,4.53
2018-08-16T08:17:18.212Z,4.27
2018-08-16T08:19:30.468Z,3.67
2018-08-16T08:21:42.727Z,5.00
2018-08-16T08:23:54.961Z,3.50
2018-08-16T08:26:07.355Z,2.90
2018-08-16T08:28:19.608Z,3.08
2018-08-16T08:30:31.843Z,3.40
2018-08-16T08:32:44.172Z,4.17
2018-08-16T08:34:56.430Z,3.90
2018-08-16T08:37:20.052Z,3.70
2018-08-16T08:39:32.435Z,3.80
2018-08-16T08:41:44.731Z,3.80
2018-08-16T08:44:19.392Z,4.05
2018-08-16T08:46:31.700Z,3.65
2018-08-16T08:48:43.898Z,4.08
2018-08-16T08:50:56.114Z,4.28
2018-08-16T08:53:19.754Z,3.55
2018-08-16T08:55:43.389Z,9.15
2018-08-16T08:58:07.038Z,4.08
2018-08-16T09:00:19.302Z,3.70
2018-08-16T09:02:31.608Z,3.72
2018-08-16T09:04:43.913Z,3.35
2018-08-16T09:06:56.228Z,3.22
2018-08-16T09:09:08.942Z,3.72
2018-08-16T09:11:32.528Z,3.87
2018-08-16T09:13:58.595Z,3.00
2018-08-16T09:16:19.383Z,3.42
2018-08-16T09:18:32.150Z,4.08
2018-08-16T09:20:46.588Z,3.67
2018-08-16T09:22:58.836Z,3.00
2018-08-16T09:25:11.077Z,2.95
2018-08-16T09:27:23.348Z,2.70
2018-08-16T09:29:54.392Z,3.55
2018-08-16T09:32:17.988Z,3.35
2018-08-16T09:34:30.215Z,3.37
2018-08-16T09:36:42.442Z,2.77
2018-08-16T09:38:55.382Z,2.60
2018-08-16T09:41:07.619Z,2.90
2018-08-16T09:43:19.880Z,2.50
2018-08-16T09:46:47.288Z,2.47
2018-08-16T09:48:59.514Z,1.90
2018-08-16T09:51:11.781Z,2.33
2018-08-16T09:53:24.043Z,4.25
2018-08-16T09:55:36.339Z,2.15
2018-08-16T09:57:48.644Z,2.20
2018-08-16T10:00:00.910Z,2.55
2018-08-16T10:02:14.800Z,2.75
2018-08-16T10:04:27.253Z,2.55
2018-08-16T10:06:40.423Z,2.25
2018-08-16T10:08:52.667Z,2.62
2018-08-16T10:11:04.880Z,2.42
2018-08-16T10:13:17.167Z,4.30
2018-08-16T10:15:29.463Z,2.15
2018-08-16T10:17:41.659Z,2.62
2018-08-16T10:19:53.940Z,2.27
2018-08-16T10:22:06.268Z,2.35
2018-08-16T10:24:18.586Z,3.40
2018-08-16T10:26:30.835Z,3.25
2018-08-16T10:28:43.642Z,2.60
2018-08-16T10:30:55.870Z,2.80
2018-08-16T10:33:08.133Z,3.60
2018-08-16T10:35:20.423Z,3.65
2018-08-16T10:37:32.702Z,2.47
2018-08-16T10:39:44.931Z,3.42
2018-08-16T10:41:57.150Z,2.52
2018-08-16T10:44:09.623Z,2.40
2018-08-16T10:46:21.963Z,2.80
2018-08-16T10:48:34.209Z,2.45
2018-08-16T10:50:46.474Z,2.20
2018-08-16T10:52:58.674Z,2.47
2018-08-16T10:55:10.970Z,2.20
2018-08-16T10:57:23.188Z,2.45
2018-08-16T10:59:35.454Z,2.10
2018-08-16T11:01:47.724Z,2.33
2018-08-16T11:04:00.027Z,1.90
2018-08-16T11:06:12.275Z,2.00
2018-08-16T11:08:25.020Z,2.45
2018-08-16T11:10:37.290Z,2.40
2018-08-16T11:12:49.508Z,2.55
2018-08-16T11:15:01.696Z,4.70
2018-08-16T11:17:13.974Z,2.37
2018-08-16T11:19:26.239Z,2.15
2018-08-16T11:21:38.494Z,1.90
2018-08-16T11:23:50.738Z,2.47
2018-08-16T11:26:03.023Z,2.35
2018-08-16T11:28:15.259Z,3.80
2018-08-16T11:30:27.499Z,2.25
2018-08-16T11:32:39.746Z,2.50
2018-08-16T11:34:52.029Z,2.52
2018-08-16T11:37:04.357Z,2.12
2018-08-16T11:39:16.583Z,2.25
2018-08-16T11:41:28.947Z,2.40
2018-08-16T11:43:41.147Z,3.98
2018-08-16T11:45:54.215Z,2.47
2018-08-16T11:48:06.534Z,3.10
2018-08-16T11:50:18.749Z,2.45
2018-08-16T11:52:30.997Z,2.45
2018-08-16T11:54:43.570Z,2.83
2018-08-16T11:56:55.830Z,2.05
2018-08-16T11:59:08.074Z,2.00
2018-08-16T12:01:20.326Z,2.47
2018-08-16T12:03:32.571Z,2.25
2018-08-16T12:05:44.762Z,2.15
2018-08-16T12:07:57.762Z,3.58
2018-08-16T12:10:09.979Z,2.00
2018-08-16T12:12:22.256Z,2.12
2018-08-16T12:14:34.501Z,2.90
2018-08-16T12:16:46.743Z,2.25
2018-08-16T12:18:58.990Z,4.00
2018-08-16T12:21:11.253Z,2.58
2018-08-16T12:23:23.463Z,2.30
2018-08-16T12:25:35.732Z,3.37
2018-08-16T12:27:47.930Z,2.10
2018-08-16T12:30:00.160Z,1.90
2018-08-16T12:32:12.387Z,2.50
2018-08-16T12:34:24.619Z,2.20
2018-08-16T12:36:36.858Z,3.25
2018-08-16T12:38:49.069Z,3.22
2018-08-16T12:41:01.824Z,2.40
2018-08-16T12:43:13.963Z,2.45
2018-08-16T12:45:26.193Z,2.75
2018-08-16T12:47:38.461Z,2.40
2018-08-16T12:49:50.691Z,2.55
2018-08-16T12:52:02.923Z,2.47
2018-08-16T12:54:15.175Z,2.55
2018-08-16T12:56:27.426Z,2.20
2018-08-16T12:58:39.661Z,2.55
2018-08-16T13:00:51.926Z,2.42
2018-08-16T13:03:04.166Z,2.35
2018-08-16T13:05:16.858Z,2.45
2018-08-16T13:07:29.116Z,3.40
2018-08-16T13:09:41.317Z,2.30
2018-08-16T13:11:53.578Z,2.47
2018-08-16T13:14:05.798Z,2.37
2018-08-16T13:16:18.059Z,2.77
2018-08-16T13:18:30.367Z,1.80
2018-08-16T13:20:42.624Z,2.20
2018-08-16T13:22:54.875Z,2.30
2018-08-16T13:25:07.856Z,2.47
2018-08-16T13:27:20.127Z,2.92
2018-08-16T13:29:32.366Z,2.40
2018-08-16T13:31:44.611Z,1.92
2018-08-16T13:33:56.883Z,2.35
2018-08-16T13:36:09.104Z,2.40
2018-08-16T13:38:21.340Z,2.52
2018-08-16T13:40:33.537Z,2.50
2018-08-16T13:42:45.789Z,2.22
2018-08-16T13:44:57.995Z,2.52
2018-08-16T13:47:10.187Z,2.98
2018-08-16T13:49:22.452Z,2.65
2018-08-16T13:51:34.793Z,2.30
2018-08-16T13:53:47.046Z,2.75
2018-08-16T13:55:59.315Z,2.00
2018-08-16T13:58:11.547Z,2.52
2018-08-16T14:00:23.829Z,2.02
2018-08-16T14:02:36.107Z,2.17
2018-08-16T14:04:48.315Z,2.50
2018-08-16T14:07:00.574Z,2.40
2018-08-16T14:09:12.795Z,3.37
2018-08-16T14:11:25.003Z,2.90
2018-08-16T14:13:37.214Z,3.30
2018-08-16T14:15:49.534Z,3.30
2018-08-16T14:18:01.792Z,2.35
2018-08-16T14:20:14.051Z,2.08
2018-08-16T14:22:26.300Z,2.17
2018-08-16T14:24:38.568Z,3.25
2018-08-16T14:26:50.811Z,2.70
2018-08-16T14:29:03.127Z,2.55
2018-08-16T14:31:15.385Z,2.55
2018-08-16T14:33:27.604Z,2.20
2018-08-16T14:35:39.854Z,2.77
2018-08-16T14:37:52.043Z,2.42
2018-08-16T14:40:04.903Z,2.70
2018-08-16T14:42:17.163Z,3.30
2018-08-16T14:44:29.423Z,3.27
2018-08-16T14:46:41.734Z,2.77
2018-08-16T14:48:53.931Z,2.67
2018-08-16T14:51:06.128Z,3.02
2018-08-16T14:53:18.373Z,2.27
2018-08-16T14:55:30.577Z,2.40
2018-08-16T14:57:42.900Z,3.27
2018-08-16T14:59:55.118Z,3.37
2018-08-16T15:02:07.358Z,2.62
2018-08-16T15:04:19.596Z,2.35
2018-08-16T15:06:31.837Z,2.30
2018-08-16T15:08:44.078Z,2.30
2018-08-16T15:10:56.355Z,2.47
2018-08-16T15:13:08.560Z,2.72
2018-08-16T15:15:20.747Z,2.50
2018-08-16T15:17:32.980Z,2.60
2018-08-16T15:19:45.323Z,3.42
2018-08-16T15:21:57.631Z,2.22
2018-08-16T15:24:09.867Z,2.42
2018-08-16T15:26:22.054Z,3.52
2018-08-16T15:28:34.320Z,2.40
2018-08-16T15:30:46.615Z,2.40
2018-08-16T15:32:58.859Z,2.47
2018-08-16T15:35:11.107Z,2.05
2018-08-16T15:37:23.313Z,2.95
2018-08-16T15:39:35.608Z,1.92
2018-08-16T15:41:47.788Z,1.77
2018-08-16T15:44:00.059Z,2.22
2018-08-16T15:46:12.311Z,2.55
2018-08-16T15:48:24.488Z,2.17
2018-08-16T15:50:36.692Z,2.02
2018-08-16T15:52:48.910Z,2.12
2018-08-16T15:55:01.143Z,2.10
2018-08-16T15:57:13.346Z,3.55
2018-08-16T15:59:25.557Z,2.25
2018-08-16T16:01:37.795Z,2.45
2018-08-16T16:03:50.023Z,2.12
2018-08-16T16:06:02.325Z,2.02
2018-08-16T16:08:14.511Z,6.35
2018-08-16T16:10:26.724Z,2.30
2018-08-16T16:12:38.967Z,2.00
2018-08-16T16:14:51.138Z,1.82
2018-08-16T16:17:03.856Z,1.60
2018-08-16T16:19:16.067Z,2.77
2018-08-16T16:21:28.290Z,1.92
2018-08-16T16:23:40.509Z,2.42
2018-08-16T16:25:52.711Z,2.15
2018-08-16T16:28:05.262Z,2.35
2018-08-16T16:30:17.460Z,2.40
2018-08-16T16:32:29.700Z,2.22
2018-08-16T16:34:41.915Z,2.87
2018-08-16T16:36:54.113Z,2.45
2018-08-16T16:39:09.207Z,2.05
2018-08-16T16:41:21.431Z,2.33
2018-08-16T16:43:33.658Z,2.70
2018-08-16T16:45:45.913Z,1.90
2018-08-16T16:47:58.123Z,2.08
2018-08-16T16:50:10.373Z,4.00
2018-08-16T16:52:22.567Z,2.15
2018-08-16T16:54:34.816Z,2.05
2018-08-16T16:56:47.075Z,3.58
2018-08-16T16:58:59.306Z,2.47
2018-08-16T17:01:12.037Z,1.85
2018-08-16T17:03:24.273Z,2.62
2018-08-16T17:05:36.547Z,2.45
2018-08-16T17:07:48.744Z,3.25
2018-08-16T17:10:01.058Z,2.67
2018-08-16T17:12:13.294Z,2.17
2018-08-16T17:14:25.508Z,2.25
2018-08-16T17:16:37.707Z,2.02
2018-08-16T17:18:49.926Z,3.52
2018-08-16T17:21:02.172Z,3.15
2018-08-16T17:23:14.362Z,1.98
2018-08-16T17:25:26.590Z,2.08
2018-08-16T17:27:38.791Z,1.90
2018-08-16T17:29:50.990Z,1.40
2018-08-16T17:32:03.341Z,1.98
2018-08-16T17:34:15.538Z,3.15
2018-08-16T17:36:27.835Z,2.10
2018-08-16T17:38:40.030Z,1.75
2018-08-16T17:40:52.214Z,1.60
2018-08-16T17:43:04.847Z,2.37
2018-08-16T17:45:17.087Z,1.70
2018-08-16T17:47:29.326Z,3.37
2018-08-16T17:49:41.510Z,1.92
2018-08-16T17:51:53.773Z,1.80
2018-08-16T17:54:06.123Z,2.37
2018-08-16T17:56:18.337Z,2.37
2018-08-16T17:58:30.667Z,2.00
2018-08-16T18:00:43.840Z,2.00
2018-08-16T18:02:56.106Z,3.92
2018-08-16T18:05:08.299Z,1.98
2018-08-16T18:07:20.528Z,2.72
2018-08-16T18:09:32.813Z,2.40
2018-08-16T18:11:45.101Z,2.67
2018-08-16T18:13:57.480Z,2.12
2018-08-16T18:16:09.702Z,2.63
2018-08-16T18:18:21.909Z,2.90
2018-08-16T18:20:34.178Z,2.50
2018-08-16T18:22:46.400Z,2.40
2018-08-16T18:24:58.642Z,2.53
2018-08-16T18:27:10.845Z,2.40
2018-08-16T18:29:23.115Z,2.40
2018-08-16T18:31:35.349Z,2.37
2018-08-16T18:33:48.578Z,2.73
2018-08-16T18:36:00.868Z,1.80
2018-08-16T18:38:13.063Z,1.80
2018-08-16T18:40:25.303Z,2.20
2018-08-16T18:42:37.606Z,2.40
2018-08-16T18:44:49.859Z,1.90
2018-08-16T18:47:01.987Z,4.23
2018-08-16T18:49:14.180Z,2.17
2018-08-16T18:51:26.871Z,3.13
2018-08-16T18:53:39.096Z,4.03
2018-08-16T18:55:52.040Z,2.00
2018-08-16T18:58:04.322Z,2.50
2018-08-16T19:00:16.575Z,2.67
2018-08-16T19:02:28.786Z,3.40
2018-08-16T19:04:41.058Z,3.83
2018-08-16T19:06:53.334Z,2.40
2018-08-16T19:09:06.255Z,2.80
2018-08-16T19:11:18.583Z,3.97
2018-08-16T19:13:30.766Z,2.43
2018-08-16T19:15:43.048Z,4.53
2018-08-16T19:17:55.286Z,2.00
2018-08-16T19:20:07.670Z,2.33
2018-08-16T19:22:19.915Z,3.03
2018-08-16T19:24:32.130Z,2.63
2018-08-16T19:26:45.688Z,2.67
2018-08-16T19:28:57.922Z,2.63
2018-08-16T19:31:10.115Z,1.97
2018-08-16T19:33:22.335Z,2.20
2018-08-16T19:35:34.821Z,2.20
2018-08-16T19:37:47.066Z,2.23
2018-08-16T19:39:59.239Z,3.50
2018-08-16T19:42:11.459Z,2.10
2018-08-16T19:44:23.626Z,3.13
2018-08-16T19:46:35.859Z,2.43
2018-08-16T19:48:48.094Z,2.67
2018-08-16T19:51:00.341Z,2.60
2018-08-16T19:53:12.603Z,2.63
2018-08-16T19:55:24.890Z,2.80
2018-08-16T19:57:37.399Z,2.30
2018-08-16T19:59:49.642Z,2.30
2018-08-16T20:02:01.883Z,3.13
2018-08-16T20:04:14.150Z,2.87
2018-08-16T20:06:26.379Z,2.37
2018-08-16T20:08:38.639Z,3.00
2018-08-16T20:10:51.033Z,2.50
2018-08-16T20:13:03.268Z,2.50
2018-08-16T20:15:15.475Z,2.80
2018-08-16T20:17:27.699Z,2.90
2018-08-16T20:19:39.991Z,3.53
2018-08-16T20:21:52.247Z,3.00
2018-08-16T20:24:04.463Z,3.10
2018-08-16T20:26:16.702Z,2.73
2018-08-16T20:28:28.946Z,2.87
2018-08-16T20:30:41.143Z,2.90
2018-08-16T20:32:53.329Z,3.87
2018-08-16T20:35:05.571Z,2.90
2018-08-16T20:37:17.785Z,2.73
2018-08-16T20:39:30.047Z,2.90
2018-08-16T20:41:42.327Z,3.00
2018-08-16T20:43:54.528Z,3.13
2018-08-16T20:46:06.755Z,3.37
2018-08-16T20:48:20.841Z,3.37
2018-08-16T20:50:33.040Z,4.70
2018-08-16T20:52:45.274Z,3.53
2018-08-16T20:54:57.495Z,4.17
2018-08-16T20:57:09.718Z,3.80
2018-08-16T20:59:21.931Z,3.40
2018-08-16T21:01:34.174Z,3.17
2018-08-16T21:03:46.440Z,3.07
2018-08-16T21:05:58.730Z,3.40
2018-08-16T21:08:10.929Z,4.60
2018-08-16T21:10:23.150Z,4.37
2018-08-16T21:12:35.371Z,3.83
2018-08-16T21:14:47.618Z,3.73
2018-08-16T21:16:59.821Z,5.07
2018-08-16T21:19:12.022Z,3.47
2018-08-16T21:21:24.294Z,4.10
2018-08-16T21:23:36.495Z,3.57
2018-08-16T21:25:48.681Z,3.57
2018-08-16T21:28:00.911Z,2.80
2018-08-16T21:30:13.157Z,3.00
2018-08-16T21:32:25.394Z,3.23
2018-08-16T21:34:37.759Z,3.40
2018-08-16T21:36:49.841Z,3.37
2018-08-16T21:39:02.129Z,3.97
2018-08-16T21:41:14.474Z,3.03
2018-08-16T21:43:26.674Z,3.00
2018-08-16T21:45:38.884Z,2.80
2018-08-16T21:47:51.159Z,3.40
2018-08-16T21:50:03.975Z,2.97
2018-08-16T21:52:16.177Z,4.07
2018-08-16T21:54:28.387Z,3.70
2018-08-16T21:56:40.658Z,3.23
2018-08-16T21:58:52.910Z,3.27
2018-08-16T22:01:06.176Z,2.80
2018-08-16T22:03:19.522Z,3.50
2018-08-16T22:05:41.987Z,2.43
2018-08-16T22:08:09.941Z,5.07
2018-08-16T22:10:22.183Z,4.90
2018-08-16T22:12:34.358Z,2.60
2018-08-16T22:14:46.561Z,2.97
2018-08-16T22:16:58.758Z,2.73
2018-08-16T22:19:10.958Z,3.90
2018-08-16T22:21:23.207Z,4.20
2018-08-16T22:23:35.482Z,4.73
2018-08-16T22:25:47.679Z,3.10
2018-08-16T22:27:59.969Z,4.33
2018-08-16T22:30:12.254Z,3.33
2018-08-16T22:32:24.474Z,3.27
2018-08-16T22:34:36.657Z,3.50
2018-08-16T22:36:48.906Z,3.90
2018-08-16T22:39:01.096Z,3.57
2018-08-16T22:41:13.343Z,3.13
2018-08-16T22:43:25.597Z,2.97
2018-08-16T22:45:37.824Z,3.50
2018-08-16T22:47:50.031Z,2.53
2018-08-16T22:50:02.288Z,3.10
2018-08-16T22:52:14.520Z,4.70
2018-08-16T22:54:26.757Z,3.00
2018-08-16T22:56:38.955Z,4.17
2018-08-16T22:58:51.186Z,3.00
2018-08-16T23:01:03.483Z,3.80
2018-08-16T23:03:15.787Z,3.67
2018-08-16T23:05:28.034Z,2.80
2018-08-16T23:07:40.231Z,3.07
2018-08-16T23:09:52.406Z,4.27
2018-08-16T23:12:04.665Z,2.77
2018-08-16T23:14:16.863Z,3.37
2018-08-16T23:16:29.075Z,3.97
2018-08-16T23:18:41.252Z,3.17
2018-08-16T23:20:53.461Z,3.33
2018-08-16T23:23:06.071Z,3.67
2018-08-16T23:25:18.287Z,3.87
2018-08-16T23:27:30.494Z,2.70
2018-08-16T23:29:42.725Z,3.30
2018-08-16T23:31:54.907Z,3.40
2018-08-16T23:34:07.166Z,3.73
2018-08-16T23:36:19.410Z,3.23
2018-08-16T23:38:31.602Z,3.53
2018-08-16T23:40:43.814Z,3.67
2018-08-16T23:42:56.017Z,4.70
2018-08-16T23:45:08.935Z,3.63
2018-08-16T23:47:22.552Z,4.63
2018-08-16T23:49:34.711Z,3.50
2018-08-16T23:51:46.914Z,3.30
2018-08-16T23:53:59.126Z,3.23
2018-08-16T23:56:11.332Z,3.37
2018-08-16T23:58:23.535Z,3.60
